Time;durP1;ratioP1;P1;durP2;ratioP2;P2;SDS_P1;SDS_P2;PMS_P1;PMS_P2;Temp;Humidity;BMP_temperature;BMP_pressure;BME280_temperature;BME280_humidity;BME280_pressure;Samples;Min_cycle;Max_cycle;Signal;HPM_P1;HPM_P2
2022/08/16 00:00:59;;;;;;;;;;;588.80;2432.00;;;;;;5072425;28;19931;-56
2022/08/16 00:03:25;;;;;;;;;;;588.80;2432.00;;;;;;5072540;28;20003;-59
2022/08/16 00:05:51;;;;;;;;;;;588.90;2432.00;;;;;;5072592;28;19947;-57
2022/08/16 00:08:18;;;;;;;;;;;588.90;2432.00;;;;;;5072468;28;19958;-55
2022/08/16 00:10:43;;;;;;;;;;;588.90;2432.00;;;;;;5072310;28;19909;-56
2022/08/16 00:13:09;;;;;;;;;;;588.90;2432.00;;;;;;5072421;28;19908;-58
2022/08/16 00:15:36;;;;;;;;;;;588.80;2432.00;;;;;;5072042;28;19923;-58
2022/08/16 00:18:03;;;;;;;;;;;588.90;2432.00;;;;;;5072376;28;20374;-58
2022/08/16 00:20:29;;;;;;;;;;;588.80;2432.00;;;;;;5072194;28;19963;-59
2022/08/16 00:22:54;;;;;;;;;;;564.10;2432.00;;;;;;5071991;28;19948;-55
2022/08/16 00:25:21;;;;;;;;;;;588.80;2432.00;;;;;;5072274;28;19955;-55
2022/08/16 00:27:47;;;;;;;;;;;564.10;2432.00;;;;;;5071984;28;19915;-58
2022/08/16 00:30:13;;;;;;;;;;;588.80;2432.00;;;;;;5071296;28;19912;-58
2022/08/16 00:32:41;;;;;;;;;;;564.10;2432.00;;;;;;5071934;28;19913;-58
2022/08/16 00:35:08;;;;;;;;;;;564.10;2432.00;;;;;;5071966;28;20011;-55
2022/08/16 00:37:34;;;;;;;;;;;564.10;2432.00;;;;;;5071953;28;19916;-55
2022/08/16 00:39:59;;;;;;;;;;;564.10;2432.00;;;;;;5071812;28;20270;-55
2022/08/16 00:42:27;;;;;;;;;;;564.10;2432.00;;;;;;5071739;28;19916;-58
2022/08/16 00:44:55;;;;;;;;;;;564.00;2432.00;;;;;;5071637;28;19931;-55
2022/08/16 00:47:22;;;;;;;;;;;563.70;2432.00;;;;;;5071826;28;19991;-58
2022/08/16 00:49:48;;;;;;;;;;;563.60;2432.00;;;;;;5071691;28;19908;-58
2022/08/16 00:52:13;;;;;;;;;;;563.30;2432.00;;;;;;5071248;28;20294;-56
2022/08/16 00:54:39;;;;;;;;;;;563.30;2432.00;;;;;;5071613;28;19924;-55
2022/08/16 00:57:06;;;;;;;;;;;563.40;2432.00;;;;;;5071371;28;20413;-55
2022/08/16 00:59:33;;;;;;;;;;;563.50;2432.00;;;;;;5071314;28;19956;-55
2022/08/16 01:01:59;;;;;;;;;;;563.50;2432.00;;;;;;5071498;28;19976;-55
2022/08/16 01:04:26;;;;;;;;;;;563.60;2432.00;;;;;;5071366;28;19916;-56
2022/08/16 01:06:52;;;;;;;;;;;563.50;2432.00;;;;;;5071557;28;19916;-55
2022/08/16 01:09:18;;;;;;;;;;;563.60;2432.00;;;;;;5070395;28;19912;-55
2022/08/16 01:11:44;;;;;;;;;;;563.40;2432.00;;;;;;5069940;28;19909;-55
2022/08/16 01:14:13;;;;;;;;;;;563.50;2432.00;;;;;;5070019;28;20484;-58
2022/08/16 01:16:40;;;;;;;;;;;563.50;2432.00;;;;;;5067506;28;19963;-55
2022/08/16 01:19:13;;;;;;;;;;;563.40;2432.00;;;;;;5069854;28;20357;-55
2022/08/16 01:22:05;;;;;;;;;;;563.40;2432.00;;;;;;5067503;28;19955;-58
2022/08/16 01:24:33;;;;;;;;;;;563.20;2432.00;;;;;;5026611;28;20363;-58
2022/08/16 01:27:05;;;;;;;;;;;563.30;2432.00;;;;;;5027730;28;20283;-57
2022/08/16 01:29:40;;;;;;;;;;;563.30;2432.00;;;;;;5027643;28;20385;-55
2022/08/16 01:32:06;;;;;;;;;;;563.20;2432.00;;;;;;5027385;28;20356;-56
2022/08/16 01:34:31;;;;;;;;;;;563.20;2432.00;;;;;;5027604;28;19917;-56
2022/08/16 01:36:58;;;;;;;;;;;563.20;2432.00;;;;;;5027299;28;19964;-58
2022/08/16 01:39:24;;;;;;;;;;;563.20;2432.00;;;;;;5027374;28;20000;-56
2022/08/16 01:41:49;;;;;;;;;;;563.20;2432.00;;;;;;5026670;28;19996;-58
2022/08/16 01:44:15;;;;;;;;;;;563.20;2432.00;;;;;;5027394;28;19963;-57
2022/08/16 01:46:42;;;;;;;;;;;563.20;2432.00;;;;;;5027466;28;19913;-56
2022/08/16 01:49:11;;;;;;;;;;;538.50;2406.40;;;;;;5027506;28;20267;-59
2022/08/16 01:51:37;;;;;;;;;;;538.30;2406.40;;;;;;5027133;28;20422;-55
2022/08/16 01:54:02;;;;;;;;;;;538.30;2406.40;;;;;;5026891;28;19910;-55
2022/08/16 01:56:28;;;;;;;;;;;538.30;2406.40;;;;;;5027442;28;19916;-55
2022/08/16 01:58:55;;;;;;;;;;;538.40;2406.40;;;;;;5027288;28;20310;-57
2022/08/16 02:01:21;;;;;;;;;;;538.40;2406.40;;;;;;5049372;28;20410;-56
2022/08/16 02:03:47;;;;;;;;;;;538.40;2406.40;;;;;;5069411;28;19920;-54
2022/08/16 02:06:13;;;;;;;;;;;538.30;2406.40;;;;;;5069435;28;19909;-55
2022/08/16 02:08:38;;;;;;;;;;;538.40;2406.40;;;;;;5069516;28;20386;-58
2022/08/16 02:11:07;;;;;;;;;;;538.30;2406.40;;;;;;5069198;28;19909;-55
2022/08/16 02:13:33;;;;;;;;;;;538.20;2406.40;;;;;;5069247;28;19953;-55
2022/08/16 02:15:59;;;;;;;;;;;538.20;2406.40;;;;;;5069259;28;19917;-58
2022/08/16 02:18:25;;;;;;;;;;;538.00;2406.40;;;;;;5069272;28;19950;-54
2022/08/16 02:20:51;;;;;;;;;;;537.90;2406.40;;;;;;5069676;28;20057;-54
2022/08/16 02:23:17;;;;;;;;;;;538.00;2406.40;;;;;;5069799;28;19916;-58
2022/08/16 02:25:43;;;;;;;;;;;537.90;2406.40;;;;;;5069149;28;20385;-57
2022/08/16 02:28:09;;;;;;;;;;;537.80;2406.40;;;;;;5070700;28;19999;-58
2022/08/16 02:30:34;;;;;;;;;;;537.90;2406.40;;;;;;5070180;28;19948;-57
2022/08/16 02:33:01;;;;;;;;;;;537.80;2406.40;;;;;;5070778;28;19913;-59
2022/08/16 02:35:26;;;;;;;;;;;537.70;2406.40;;;;;;5069305;28;19916;-56
2022/08/16 02:37:53;;;;;;;;;;;537.60;2406.40;;;;;;5070501;28;20402;-55
2022/08/16 02:40:20;;;;;;;;;;;512.90;2380.80;;;;;;5070412;28;19954;-58
2022/08/16 02:42:47;;;;;;;;;;;512.90;2380.80;;;;;;5070302;28;20286;-55
2022/08/16 02:45:12;;;;;;;;;;;512.90;2380.80;;;;;;5070259;28;19909;-57
2022/08/16 02:47:38;;;;;;;;;;;512.90;2380.80;;;;;;5070405;28;19955;-59
2022/08/16 02:50:05;;;;;;;;;;;512.80;2380.80;;;;;;5070400;28;19932;-57
2022/08/16 02:52:30;;;;;;;;;;;512.80;2380.80;;;;;;5070548;28;20324;-59
2022/08/16 02:54:56;;;;;;;;;;;512.80;2380.80;;;;;;5073581;28;19916;-55
2022/08/16 02:57:22;;;;;;;;;;;512.80;2380.80;;;;;;5073846;28;19912;-54
2022/08/16 02:59:47;;;;;;;;;;;512.80;2380.80;;;;;;5073567;28;19909;-58
2022/08/16 03:02:13;;;;;;;;;;;512.70;2380.80;;;;;;5073398;28;20305;-54
2022/08/16 03:04:39;;;;;;;;;;;512.80;2380.80;;;;;;5074013;28;20007;-57
2022/08/16 03:07:05;;;;;;;;;;;512.80;2380.80;;;;;;5073716;28;19908;-56
2022/08/16 03:09:31;;;;;;;;;;;512.80;2380.80;;;;;;5073391;28;20318;-57
2022/08/16 03:11:57;;;;;;;;;;;512.80;2380.80;;;;;;5073525;28;19931;-58
2022/08/16 03:14:22;;;;;;;;;;;512.50;2380.80;;;;;;5073695;28;20366;-58
2022/08/16 03:16:48;;;;;;;;;;;512.50;2380.80;;;;;;5073608;28;20382;-55
2022/08/16 03:19:14;;;;;;;;;;;512.40;2380.80;;;;;;5073342;28;19970;-55
2022/08/16 03:21:39;;;;;;;;;;;512.40;2380.80;;;;;;5073667;28;19915;-54
2022/08/16 03:24:06;;;;;;;;;;;512.40;2380.80;;;;;;5073408;28;20002;-55
2022/08/16 03:26:32;;;;;;;;;;;512.50;2380.80;;;;;;5073257;28;20341;-55
2022/08/16 03:28:57;;;;;;;;;;;512.60;2380.80;;;;;;5073101;28;19944;-55
2022/08/16 03:31:24;;;;;;;;;;;512.60;2380.80;;;;;;5073036;28;20282;-56
2022/08/16 03:33:49;;;;;;;;;;;512.60;2380.80;;;;;;5073191;28;19952;-57
2022/08/16 03:36:15;;;;;;;;;;;512.60;2380.80;;;;;;5072110;28;19999;-56
2022/08/16 03:38:41;;;;;;;;;;;512.60;2380.80;;;;;;5073227;28;19934;-58
2022/08/16 03:41:07;;;;;;;;;;;512.60;2380.80;;;;;;5072686;28;19912;-54
2022/08/16 03:43:33;;;;;;;;;;;512.70;2380.80;;;;;;5072813;28;19909;-55
2022/08/16 03:45:59;;;;;;;;;;;512.70;2380.80;;;;;;5072933;28;20359;-54
2022/08/16 03:48:26;;;;;;;;;;;512.70;2380.80;;;;;;5072809;28;20014;-55
2022/08/16 03:50:52;;;;;;;;;;;512.70;2380.80;;;;;;5073053;28;20370;-57
2022/08/16 03:53:17;;;;;;;;;;;512.70;2380.80;;;;;;5072662;28;19909;-57
2022/08/16 03:55:43;;;;;;;;;;;512.60;2380.80;;;;;;5072718;28;19916;-55
2022/08/16 03:58:08;;;;;;;;;;;512.70;2380.80;;;;;;5072741;28;19931;-57
2022/08/16 04:00:34;;;;;;;;;;;512.60;2380.80;;;;;;5072278;28;19913;-55
2022/08/16 04:03:05;;;;;;;;;;;512.80;2380.80;;;;;;5072671;28;19916;-57
2022/08/16 04:05:32;;;;;;;;;;;512.90;2380.80;;;;;;5071977;28;19916;-57
2022/08/16 04:07:57;;;;;;;;;;;512.90;2380.80;;;;;;5072585;28;19912;-54
2022/08/16 04:10:23;;;;;;;;;;;512.90;2380.80;;;;;;5072618;28;20289;-57
2022/08/16 04:12:48;;;;;;;;;;;512.90;2380.80;;;;;;5072429;28;20057;-54
2022/08/16 04:15:15;;;;;;;;;;;537.60;2406.40;;;;;;5072338;28;19940;-55
2022/08/16 04:17:41;;;;;;;;;;;537.60;2406.40;;;;;;5072308;28;19912;-55
2022/08/16 04:20:08;;;;;;;;;;;537.80;2406.40;;;;;;5072196;28;19908;-57
2022/08/16 04:22:34;;;;;;;;;;;537.90;2406.40;;;;;;5072310;28;20389;-55
2022/08/16 04:24:59;;;;;;;;;;;538.00;2406.40;;;;;;5072254;28;19909;-57
2022/08/16 04:27:25;;;;;;;;;;;538.00;2406.40;;;;;;5072027;28;20332;-54
2022/08/16 04:29:51;;;;;;;;;;;538.10;2406.40;;;;;;5072077;28;20753;-54
2022/08/16 04:32:16;;;;;;;;;;;538.10;2406.40;;;;;;5071875;28;19913;-57
2022/08/16 04:34:42;;;;;;;;;;;538.20;2406.40;;;;;;5071914;28;19959;-55
2022/08/16 04:37:07;;;;;;;;;;;538.20;2406.40;;;;;;5072160;28;19908;-57
2022/08/16 04:39:34;;;;;;;;;;;538.30;2406.40;;;;;;5071874;28;19915;-55
2022/08/16 04:42:00;;;;;;;;;;;538.50;2406.40;;;;;;5071808;28;19915;-57
2022/08/16 04:44:25;;;;;;;;;;;538.50;2406.40;;;;;;5071669;28;19952;-55
2022/08/16 04:46:51;;;;;;;;;;;563.20;2432.00;;;;;;5071903;28;19913;-55
2022/08/16 04:49:17;;;;;;;;;;;563.40;2432.00;;;;;;5071477;28;19909;-55
2022/08/16 04:51:43;;;;;;;;;;;563.80;2432.00;;;;;;5071728;28;19909;-55
2022/08/16 04:54:09;;;;;;;;;;;614.40;2432.00;;;;;;5071501;28;19916;-57
2022/08/16 04:56:34;;;;;;;;;;;615.00;2432.00;;;;;;5071227;28;20351;-58
2022/08/16 04:59:00;;;;;;;;;;;615.20;2432.00;;;;;;5071621;28;19916;-58
2022/08/16 05:01:26;;;;;;;;;;;640.10;2432.00;;;;;;5071100;28;19927;-58
2022/08/16 05:03:52;;;;;;;;;;;640.70;2432.00;;;;;;5071497;28;19917;-59
2022/08/16 05:06:18;;;;;;;;;;;691.20;2380.80;;;;;;5071418;28;19961;-58
2022/08/16 05:08:43;;;;;;;;;;;691.50;2278.40;;;;;;5070762;28;20007;-58
2022/08/16 05:11:11;;;;;;;;;;;742.40;2124.80;;;;;;5071320;28;19908;-57
2022/08/16 05:13:38;;;;;;;;;;;768.60;1868.80;;;;;;5071143;28;19948;-58
2022/08/16 05:16:04;;;;;;;;;;;794.20;1740.80;;;;;;5071014;28;19952;-56
2022/08/16 05:18:30;;;;;;;;;;;819.80;1664.00;;;;;;5071229;28;19977;-54
2022/08/16 05:20:55;;;;;;;;;;;845.70;1587.20;;;;;;5070964;28;19930;-59
2022/08/16 05:23:21;;;;;;;;;;;870.90;1484.80;;;;;;5071304;28;19912;-55
2022/08/16 05:25:47;;;;;;;;;;;871.30;1433.60;;;;;;5071123;28;19954;-57
2022/08/16 05:28:13;;;;;;;;;;;896.10;1408.00;;;;;;5071161;28;19909;-55
2022/08/16 05:30:38;;;;;;;;;;;896.60;1382.40;;;;;;5071116;28;19913;-56
2022/08/16 05:33:04;;;;;;;;;;;922.50;1331.20;;;;;;5070920;28;19924;-55
2022/08/16 05:35:30;;;;;;;;;;;972.90;1280.00;;;;;;5070948;28;19920;-59
2022/08/16 05:37:55;;;;;;;;;;;973.70;1203.20;;;;;;5070783;28;19931;-59
2022/08/16 05:40:21;;;;;;;;;;;973.20;1228.80;;;;;;5071045;28;19995;-59
2022/08/16 05:42:47;;;;;;;;;;;973.30;1228.80;;;;;;5070904;28;19915;-56
2022/08/16 05:45:12;;;;;;;;;;;998.60;1203.20;;;;;;5071112;28;20313;-59
2022/08/16 05:47:38;;;;;;;;;;;998.80;1177.60;;;;;;5071052;28;19912;-58
2022/08/16 05:50:05;;;;;;;;;;;999.00;1203.20;;;;;;5070670;28;20308;-57
2022/08/16 05:52:30;;;;;;;;;;;998.80;1177.60;;;;;;5070882;28;19942;-59
2022/08/16 05:54:56;;;;;;;;;;;999.00;1203.20;;;;;;5070467;28;20370;-58
2022/08/16 05:57:22;;;;;;;;;;;1024.00;1152.00;;;;;;5070794;28;19974;-58
2022/08/16 05:59:48;;;;;;;;;;;973.70;1203.20;;;;;;5070434;28;19951;-59
2022/08/16 06:02:13;;;;;;;;;;;973.40;1203.20;;;;;;5070476;28;19931;-56
2022/08/16 06:04:39;;;;;;;;;;;973.30;1228.80;;;;;;5071006;28;19909;-60
2022/08/16 06:07:05;;;;;;;;;;;973.50;1203.20;;;;;;5070680;28;19909;-61
2022/08/16 06:09:32;;;;;;;;;;;998.40;1203.20;;;;;;5070949;28;19908;-61
2022/08/16 06:11:59;;;;;;;;;;;1024.00;1152.00;;;;;;5070461;28;19915;-60
2022/08/16 06:14:25;;;;;;;;;;;1024.30;1152.00;;;;;;5070403;28;19913;-61
2022/08/16 06:16:52;;;;;;;;;;;1049.90;1126.40;;;;;;5070490;28;20377;-61
2022/08/16 06:19:18;;;;;;;;;;;1049.90;1126.40;;;;;;5070503;28;19915;-60
2022/08/16 06:21:44;;;;;;;;;;;1075.30;1075.20;;;;;;5069697;28;19955;-60
2022/08/16 06:24:09;;;;;;;;;;;1101.70;1024.00;;;;;;5070583;28;19908;-60
2022/08/16 06:26:35;;;;;;;;;;;1126.60;1024.00;;;;;;5070274;28;19908;-60
2022/08/16 06:29:00;;;;;;;;;;;1152.20;998.40;;;;;;5072924;28;20335;-61
2022/08/16 06:31:26;;;;;;;;;;;1152.90;998.40;;;;;;5074085;28;19913;-61
2022/08/16 06:33:51;;;;;;;;;;;1152.50;998.40;;;;;;5074416;28;19955;-61
2022/08/16 06:36:17;;;;;;;;;;;1177.80;972.80;;;;;;5073996;28;20358;-61
2022/08/16 06:38:43;;;;;;;;;;;1178.30;947.20;;;;;;5074251;28;20324;-61
2022/08/16 06:41:09;;;;;;;;;;;1228.90;947.20;;;;;;5071545;28;19909;-61
2022/08/16 06:43:34;;;;;;;;;;;1229.00;947.20;;;;;;5071927;28;19912;-61
2022/08/16 06:46:01;;;;;;;;;;;1203.20;947.20;;;;;;5071941;28;20278;-61
2022/08/16 06:48:26;;;;;;;;;;;1152.00;998.40;;;;;;5071703;28;19909;-61
2022/08/16 06:50:52;;;;;;;;;;;1152.20;972.80;;;;;;5072026;28;19912;-60
2022/08/16 06:53:18;;;;;;;;;;;1152.50;947.20;;;;;;5071138;28;19950;-60
2022/08/16 06:55:44;;;;;;;;;;;1152.70;947.20;;;;;;5071514;28;20297;-61
2022/08/16 06:58:09;;;;;;;;;;;1126.90;998.40;;;;;;5071735;28;19908;-60
2022/08/16 07:00:37;;;;;;;;;;;1127.00;998.40;;;;;;5071152;28;19912;-61
2022/08/16 07:03:03;;;;;;;;;;;1127.10;998.40;;;;;;5071774;28;19924;-60
2022/08/16 07:05:30;;;;;;;;;;;1126.60;998.40;;;;;;5071361;28;19912;-61
2022/08/16 07:07:56;;;;;;;;;;;1152.20;972.80;;;;;;5073370;28;19916;-61
2022/08/16 07:10:22;;;;;;;;;;;1152.50;972.80;;;;;;5073532;28;19913;-61
2022/08/16 07:12:49;;;;;;;;;;;1178.30;947.20;;;;;;5073597;28;19951;-61
2022/08/16 07:15:18;;;;;;;;;;;1203.30;921.60;;;;;;5073302;28;19917;-61
2022/08/16 07:17:44;;;;;;;;;;;1203.80;921.60;;;;;;5073245;28;19915;-61
2022/08/16 07:20:11;;;;;;;;;;;1254.40;921.60;;;;;;5073425;28;19919;-61
2022/08/16 07:22:37;;;;;;;;;;;1229.30;896.00;;;;;;5073232;28;20384;-60
2022/08/16 07:25:04;;;;;;;;;;;1254.90;870.40;;;;;;5073193;28;19908;-60
2022/08/16 07:27:29;;;;;;;;;;;1255.30;844.80;;;;;;5073220;28;19960;-61
2022/08/16 07:29:55;;;;;;;;;;;1280.70;793.60;;;;;;5073131;28;19958;-60
2022/08/16 07:32:20;;;;;;;;;;;1305.70;793.60;;;;;;5073320;28;19920;-62
2022/08/16 07:34:46;;;;;;;;;;;1280.50;793.60;;;;;;5072763;28;20353;-62
2022/08/16 07:37:12;;;;;;;;;;;1280.40;819.20;;;;;;5073117;28;20019;-60
2022/08/16 07:39:38;;;;;;;;;;;1280.90;793.60;;;;;;5071948;28;19920;-60
2022/08/16 07:42:04;;;;;;;;;;;1305.70;768.00;;;;;;5072751;28;19951;-61
2022/08/16 07:44:29;;;;;;;;;;;1306.00;768.00;;;;;;5073244;28;19944;-61
2022/08/16 07:46:55;;;;;;;;;;;1306.20;742.40;;;;;;5072838;28;19940;-61
2022/08/16 07:49:21;;;;;;;;;;;1306.30;742.40;;;;;;5072933;28;19916;-61
2022/08/16 07:51:46;;;;;;;;;;;1332.10;742.40;;;;;;5072662;28;19998;-61
2022/08/16 07:54:12;;;;;;;;;;;1331.40;716.80;;;;;;5072571;28;19909;-61
2022/08/16 07:56:38;;;;;;;;;;;1331.60;716.80;;;;;;5072836;28;19942;-61
2022/08/16 07:59:04;;;;;;;;;;;1306.20;716.80;;;;;;5072394;28;19909;-62
2022/08/16 08:01:30;;;;;;;;;;;1306.50;716.80;;;;;;5072301;28;19920;-60
2022/08/16 08:03:56;;;;;;;;;;;1305.90;716.80;;;;;;5072450;28;20011;-61
2022/08/16 08:06:23;;;;;;;;;;;1305.90;716.80;;;;;;5072543;28;20963;-61
2022/08/16 08:08:49;;;;;;;;;;;1280.70;742.40;;;;;;5072353;28;19999;-61
2022/08/16 08:11:14;;;;;;;;;;;1305.90;742.40;;;;;;5072289;28;19955;-61
2022/08/16 08:13:40;;;;;;;;;;;1305.60;742.40;;;;;;5072765;28;19962;-61
2022/08/16 08:16:05;;;;;;;;;;;1280.90;742.40;;;;;;5072121;28;19908;-61
2022/08/16 08:18:31;;;;;;;;;;;1305.70;716.80;;;;;;5072333;28;19913;-61
2022/08/16 08:20:57;;;;;;;;;;;1280.70;742.40;;;;;;5071999;28;20281;-61
2022/08/16 08:23:24;;;;;;;;;;;1280.40;742.40;;;;;;5072018;28;19916;-61
2022/08/16 08:25:50;;;;;;;;;;;1255.30;742.40;;;;;;5072066;28;19920;-61
2022/08/16 08:28:16;;;;;;;;;;;1255.10;768.00;;;;;;5071955;28;19909;-62
2022/08/16 08:30:42;;;;;;;;;;;1254.60;768.00;;;;;;5071907;28;19955;-61
2022/08/16 08:33:07;;;;;;;;;;;1203.80;768.00;;;;;;5071852;28;19912;-61
2022/08/16 08:35:33;;;;;;;;;;;1178.30;768.00;;;;;;5071862;28;19931;-61
2022/08/16 08:37:59;;;;;;;;;;;1126.80;844.80;;;;;;5071877;28;19916;-61
2022/08/16 08:40:26;;;;;;;;;;;1101.70;844.80;;;;;;5071541;28;19909;-61
2022/08/16 08:42:52;;;;;;;;;;;1100.80;921.60;;;;;;5071865;28;19941;-61
2022/08/16 08:45:17;;;;;;;;;;;1075.20;896.00;;;;;;5071926;28;20464;-62
2022/08/16 08:47:45;;;;;;;;;;;1049.90;947.20;;;;;;5071380;28;20270;-62
2022/08/16 08:50:11;;;;;;;;;;;1024.50;947.20;;;;;;5071583;28;20366;-61
2022/08/16 08:52:38;;;;;;;;;;;998.80;998.40;;;;;;5071005;28;20347;-61
2022/08/16 08:55:06;;;;;;;;;;;998.60;972.80;;;;;;5071207;28;19908;-62
2022/08/16 08:57:32;;;;;;;;;;;973.20;998.40;;;;;;5071520;28;20239;-61
2022/08/16 08:59:58;;;;;;;;;;;973.30;1024.00;;;;;;5071248;28;19912;-61
2022/08/16 09:02:23;;;;;;;;;;;973.20;998.40;;;;;;5071038;28;19925;-61
2022/08/16 09:04:49;;;;;;;;;;;972.80;1024.00;;;;;;5071508;28;19916;-61
2022/08/16 09:07:15;;;;;;;;;;;947.50;1024.00;;;;;;5071293;28;19909;-61
2022/08/16 09:09:41;;;;;;;;;;;947.60;1049.60;;;;;;5071505;28;19954;-61
2022/08/16 09:12:07;;;;;;;;;;;947.70;1049.60;;;;;;5071458;28;19948;-62
2022/08/16 09:14:33;;;;;;;;;;;947.40;1024.00;;;;;;5071734;28;20251;-61
2022/08/16 09:16:59;;;;;;;;;;;947.40;1049.60;;;;;;5071309;28;20259;-60
2022/08/16 09:19:25;;;;;;;;;;;947.20;1049.60;;;;;;5071012;28;19931;-61
2022/08/16 09:21:50;;;;;;;;;;;922.10;1075.20;;;;;;5071228;28;19916;-61
2022/08/16 09:24:17;;;;;;;;;;;922.30;1049.60;;;;;;5070875;28;19909;-61
2022/08/16 09:26:42;;;;;;;;;;;921.80;1100.80;;;;;;5071047;28;19913;-61
2022/08/16 09:29:08;;;;;;;;;;;922.00;1100.80;;;;;;5071378;28;20265;-61
2022/08/16 09:31:34;;;;;;;;;;;922.00;1100.80;;;;;;5070879;28;20397;-61
2022/08/16 09:34:01;;;;;;;;;;;921.90;1100.80;;;;;;5071041;28;19913;-61
2022/08/16 09:36:28;;;;;;;;;;;922.00;1075.20;;;;;;5071078;28;20382;-61
2022/08/16 09:38:55;;;;;;;;;;;922.00;1075.20;;;;;;5070672;28;20325;-61
2022/08/16 09:41:20;;;;;;;;;;;922.00;1100.80;;;;;;5070980;28;19913;-61
2022/08/16 09:43:46;;;;;;;;;;;922.30;1075.20;;;;;;5070834;28;19954;-61
2022/08/16 09:46:12;;;;;;;;;;;922.50;1100.80;;;;;;5070941;28;19921;-61
2022/08/16 09:48:40;;;;;;;;;;;922.30;1075.20;;;;;;5070776;28;19962;-61
2022/08/16 09:51:10;;;;;;;;;;;922.40;1075.20;;;;;;5070751;28;19970;-61
2022/08/16 09:53:36;;;;;;;;;;;922.40;1049.60;;;;;;5070793;28;19954;-62
2022/08/16 09:56:03;;;;;;;;;;;922.50;1100.80;;;;;;5070772;28;19916;-61
2022/08/16 09:58:29;;;;;;;;;;;922.00;1100.80;;;;;;5070935;28;20385;-61
2022/08/16 10:00:55;;;;;;;;;;;922.00;1075.20;;;;;;5070262;28;19956;-61
2022/08/16 10:03:21;;;;;;;;;;;922.50;1075.20;;;;;;5072326;28;20003;-62
2022/08/16 10:05:47;;;;;;;;;;;922.00;1075.20;;;;;;5074511;28;19916;-61
2022/08/16 10:08:12;;;;;;;;;;;922.10;1075.20;;;;;;5074804;28;19912;-61
2022/08/16 10:13:10;;;;;;;;;;;922.50;1075.20;;;;;;5074915;28;19909;-61
2022/08/16 10:13:27;;;;;;;;;;;922.30;1100.80;;;;;;5074520;28;19999;-60
2022/08/16 10:15:58;;;;;;;;;;;922.40;1100.80;;;;;;5074659;28;20377;-61
2022/08/16 10:18:26;;;;;;;;;;;922.00;1100.80;;;;;;5074360;28;20342;-61
2022/08/16 10:20:52;;;;;;;;;;;922.00;1100.80;;;;;;5074711;28;19913;-61
2022/08/16 10:23:18;;;;;;;;;;;922.00;1100.80;;;;;;5074599;28;19999;-61
2022/08/16 10:25:44;;;;;;;;;;;922.10;1100.80;;;;;;5074231;28;20007;-61
2022/08/16 10:28:10;;;;;;;;;;;922.40;1100.80;;;;;;5074469;28;20362;-61
2022/08/16 10:30:37;;;;;;;;;;;922.30;1075.20;;;;;;5073988;28;19912;-61
2022/08/16 10:33:03;;;;;;;;;;;947.20;1075.20;;;;;;5074449;28;20019;-61
2022/08/16 10:35:29;;;;;;;;;;;922.40;1100.80;;;;;;5074305;28;19909;-61
2022/08/16 10:37:54;;;;;;;;;;;922.10;1100.80;;;;;;5073941;28;19935;-62
2022/08/16 10:40:20;;;;;;;;;;;922.00;1126.40;;;;;;5074280;28;19915;-61
2022/08/16 10:42:48;;;;;;;;;;;922.00;1126.40;;;;;;5074021;28;20370;-61
2022/08/16 10:45:14;;;;;;;;;;;921.60;1152.00;;;;;;5073804;28;19917;-61
2022/08/16 10:47:39;;;;;;;;;;;921.70;1152.00;;;;;;5074097;28;19916;-61
2022/08/16 10:50:05;;;;;;;;;;;896.90;1152.00;;;;;;5073815;28;19970;-60
2022/08/16 10:52:32;;;;;;;;;;;921.80;1152.00;;;;;;5073861;28;19908;-59
2022/08/16 10:54:59;;;;;;;;;;;921.70;1152.00;;;;;;5073681;28;19909;-60
2022/08/16 10:57:26;;;;;;;;;;;896.50;1126.40;;;;;;5073737;28;20361;-60
2022/08/16 10:59:52;;;;;;;;;;;896.80;1126.40;;;;;;5073994;28;19950;-60
2022/08/16 11:02:18;;;;;;;;;;;896.60;1152.00;;;;;;5073343;28;20396;-60
2022/08/16 11:04:44;;;;;;;;;;;896.60;1152.00;;;;;;5073937;28;19913;-61
2022/08/16 11:07:09;;;;;;;;;;;896.50;1177.60;;;;;;5073711;28;20408;-60
2022/08/16 11:09:35;;;;;;;;;;;896.50;1177.60;;;;;;5073493;28;19930;-61
2022/08/16 11:12:00;;;;;;;;;;;896.30;1177.60;;;;;;5073753;28;19935;-60
2022/08/16 11:14:26;;;;;;;;;;;896.40;1177.60;;;;;;5073281;28;20382;-61
2022/08/16 11:16:52;;;;;;;;;;;896.40;1203.20;;;;;;5073813;28;20281;-60
2022/08/16 11:19:17;;;;;;;;;;;896.90;1177.60;;;;;;5073392;28;19908;-61
2022/08/16 11:21:44;;;;;;;;;;;896.40;1203.20;;;;;;5073141;28;19936;-63
2022/08/16 11:24:10;;;;;;;;;;;896.30;1177.60;;;;;;5073309;28;20347;-61
2022/08/16 11:26:35;;;;;;;;;;;896.20;1203.20;;;;;;5072931;28;20011;-60
2022/08/16 11:29:01;;;;;;;;;;;896.40;1203.20;;;;;;5073249;28;20006;-59
2022/08/16 11:31:26;;;;;;;;;;;896.50;1203.20;;;;;;5072773;28;19919;-60
2022/08/16 11:33:52;;;;;;;;;;;896.40;1177.60;;;;;;5073132;28;20715;-61
2022/08/16 11:36:18;;;;;;;;;;;896.10;1228.80;;;;;;5072949;28;19915;-61
2022/08/16 11:38:44;;;;;;;;;;;871.30;1203.20;;;;;;5072961;28;19909;-62
2022/08/16 11:41:10;;;;;;;;;;;871.30;1203.20;;;;;;5073109;28;20287;-61
2022/08/16 11:43:37;;;;;;;;;;;871.10;1203.20;;;;;;5072837;28;20014;-61
2022/08/16 11:46:06;;;;;;;;;;;871.00;1228.80;;;;;;5072905;28;20359;-60
2022/08/16 11:48:32;;;;;;;;;;;871.10;1203.20;;;;;;5072997;28;19912;-61
2022/08/16 11:50:59;;;;;;;;;;;871.10;1228.80;;;;;;5072893;28;19915;-61
2022/08/16 11:53:27;;;;;;;;;;;870.90;1228.80;;;;;;5072559;28;19908;-60
2022/08/16 11:55:53;;;;;;;;;;;870.90;1228.80;;;;;;5072892;28;19948;-61
2022/08/16 11:58:19;;;;;;;;;;;871.00;1254.40;;;;;;5072931;28;19942;-60
2022/08/16 12:00:45;;;;;;;;;;;871.00;1228.80;;;;;;5072332;28;19938;-61
2022/08/16 12:03:11;;;;;;;;;;;871.30;1228.80;;;;;;5071484;28;20318;-61
2022/08/16 12:05:37;;;;;;;;;;;871.30;1228.80;;;;;;5072410;28;19916;-61
2022/08/16 12:08:05;;;;;;;;;;;871.30;1228.80;;;;;;5072364;28;19962;-61
2022/08/16 12:10:31;;;;;;;;;;;871.30;1228.80;;;;;;5072815;28;19913;-61
2022/08/16 12:12:56;;;;;;;;;;;871.30;1203.20;;;;;;5072287;28;20361;-60
2022/08/16 12:15:23;;;;;;;;;;;871.20;1203.20;;;;;;5072526;28;19959;-60
2022/08/16 12:17:49;;;;;;;;;;;871.10;1203.20;;;;;;5072566;28;19916;-61
2022/08/16 12:20:18;;;;;;;;;;;871.30;1203.20;;;;;;5072277;28;19909;-61
2022/08/16 12:22:44;;;;;;;;;;;871.30;1177.60;;;;;;5072011;28;20007;-61
2022/08/16 12:25:12;;;;;;;;;;;871.30;1177.60;;;;;;5071936;28;20022;-61
2022/08/16 12:27:37;;;;;;;;;;;871.30;1203.20;;;;;;5071708;28;20277;-61
2022/08/16 12:30:03;;;;;;;;;;;896.10;1177.60;;;;;;5071982;28;19912;-61
2022/08/16 12:32:29;;;;;;;;;;;896.30;1203.20;;;;;;5072110;28;20307;-61
2022/08/16 12:34:55;;;;;;;;;;;896.00;1203.20;;;;;;5071806;28;19916;-61
2022/08/16 12:37:21;;;;;;;;;;;871.30;1203.20;;;;;;5070399;28;20430;-60
2022/08/16 12:39:47;;;;;;;;;;;871.30;1203.20;;;;;;5069076;28;19982;-60
2022/08/16 12:42:12;;;;;;;;;;;871.30;1177.60;;;;;;5068566;28;20021;-61
2022/08/16 12:44:40;;;;;;;;;;;870.90;1203.20;;;;;;5068629;28;19924;-60
2022/08/16 12:49:51;;;;;;;;;;;870.80;1203.20;;;;;;5066818;28;19915;-61
2022/08/16 12:52:17;;;;;;;;;;;870.70;1203.20;;;;;;5067881;28;20286;-61
2022/08/16 12:54:42;;;;;;;;;;;870.70;1203.20;;;;;;5069423;28;19962;-59
2022/08/16 12:57:08;;;;;;;;;;;870.70;1228.80;;;;;;5069363;28;19912;-61
2022/08/16 12:59:35;;;;;;;;;;;870.80;1228.80;;;;;;5070134;28;19908;-61
2022/08/16 13:02:01;;;;;;;;;;;870.80;1228.80;;;;;;5071283;28;19924;-61
2022/08/16 13:04:28;;;;;;;;;;;870.70;1203.20;;;;;;5071165;28;19942;-61
2022/08/16 13:06:54;;;;;;;;;;;870.70;1228.80;;;;;;5071217;28;19912;-61
2022/08/16 13:09:23;;;;;;;;;;;870.60;1228.80;;;;;;5071276;28;19908;-60
2022/08/16 13:11:58;;;;;;;;;;;870.50;1228.80;;;;;;5071541;28;19908;-61
2022/08/16 13:14:35;;;;;;;;;;;870.50;1228.80;;;;;;5071268;28;19912;-61
2022/08/16 13:17:02;;;;;;;;;;;870.60;1228.80;;;;;;5071442;28;19998;-61
2022/08/16 13:19:28;;;;;;;;;;;870.60;1228.80;;;;;;5071293;28;20021;-61
2022/08/16 13:21:54;;;;;;;;;;;870.40;1228.80;;;;;;5068532;28;19930;-61
2022/08/16 13:24:19;;;;;;;;;;;845.70;1228.80;;;;;;5069000;28;19908;-61
2022/08/16 13:26:45;;;;;;;;;;;845.70;1228.80;;;;;;5068790;28;19913;-61
2022/08/16 13:29:10;;;;;;;;;;;845.60;1228.80;;;;;;5069204;28;19909;-61
2022/08/16 13:31:36;;;;;;;;;;;845.40;1280.00;;;;;;5068700;28;20410;-61
2022/08/16 13:34:02;;;;;;;;;;;845.40;1280.00;;;;;;5068637;28;19944;-60
2022/08/16 13:36:27;;;;;;;;;;;845.40;1305.60;;;;;;5068817;28;19915;-61
2022/08/16 13:38:53;;;;;;;;;;;845.10;1305.60;;;;;;5068763;28;19915;-61